sensor_id;sensor_type;location;lat;lon;timestamp;temperature;humidity
9772;DHT22;4925;52.588;13.370;2024-02-26T00:01:44;6.10;99.90
9772;DHT22;4925;52.588;13.370;2024-02-26T00:04:11;6.10;99.90
9772;DHT22;4925;52.588;13.370;2024-02-26T00:06:38;6.00;99.90
9772;DHT22;4925;52.588;13.370;2024-02-26T00:09:06;6.00;99.90
9772;DHT22;4925;52.588;13.370;2024-02-26T00:11:32;6.00;99.90
9772;DHT22;4925;52.588;13.370;2024-02-26T00:13:59;5.90;99.90
9772;DHT22;4925;52.588;13.370;2024-02-26T00:16:25;5.90;99.90
9772;DHT22;4925;52.588;13.370;2024-02-26T00:18:51;5.90;99.90
9772;DHT22;4925;52.588;13.370;2024-02-26T00:21:17;5.90;99.90
9772;DHT22;4925;52.588;13.370;2024-02-26T00:23:45;5.80;99.90
9772;DHT22;4925;52.588;13.370;2024-02-26T00:26:10;5.80;99.90
9772;DHT22;4925;52.588;13.370;2024-02-26T00:28:36;5.70;99.90
9772;DHT22;4925;52.588;13.370;2024-02-26T00:31:03;5.60;99.90
9772;DHT22;4925;52.588;13.370;2024-02-26T00:33:28;5.60;99.90
9772;DHT22;4925;52.588;13.370;2024-02-26T00:35:54;5.60;99.90
9772;DHT22;4925;52.588;13.370;2024-02-26T00:38:20;5.60;99.90
9772;DHT22;4925;52.588;13.370;2024-02-26T00:40:47;5.60;99.90
9772;DHT22;4925;52.588;13.370;2024-02-26T00:43:13;5.60;99.90
9772;DHT22;4925;52.588;13.370;2024-02-26T00:45:38;5.60;99.90
9772;DHT22;4925;52.588;13.370;2024-02-26T00:48:04;5.50;99.90
9772;DHT22;4925;52.588;13.370;2024-02-26T00:50:34;5.50;99.90
9772;DHT22;4925;52.588;13.370;2024-02-26T00:53:00;5.50;99.90
9772;DHT22;4925;52.588;13.370;2024-02-26T00:55:26;5.50;99.90
9772;DHT22;4925;52.588;13.370;2024-02-26T00:57:51;5.50;99.90
9772;DHT22;4925;52.588;13.370;2024-02-26T01:00:17;5.50;99.90
9772;DHT22;4925;52.588;13.370;2024-02-26T01:02:43;5.40;99.90
9772;DHT22;4925;52.588;13.370;2024-02-26T01:05:14;5.40;99.90
9772;DHT22;4925;52.588;13.370;2024-02-26T01:07:39;5.50;99.90
9772;DHT22;4925;52.588;13.370;2024-02-26T01:10:08;5.40;99.90
9772;DHT22;4925;52.588;13.370;2024-02-26T01:12:35;5.40;99.90
9772;DHT22;4925;52.588;13.370;2024-02-26T01:15:02;5.40;99.90
9772;DHT22;4925;52.588;13.370;2024-02-26T01:17:31;5.40;99.90
9772;DHT22;4925;52.588;13.370;2024-02-26T01:19:57;5.40;99.90
9772;DHT22;4925;52.588;13.370;2024-02-26T01:22:22;5.30;99.90
9772;DHT22;4925;52.588;13.370;2024-02-26T01:24:53;5.30;99.90
9772;DHT22;4925;52.588;13.370;2024-02-26T01:27:20;5.30;99.90
9772;DHT22;4925;52.588;13.370;2024-02-26T01:29:47;5.30;99.90
9772;DHT22;4925;52.588;13.370;2024-02-26T01:32:13;5.30;99.90
9772;DHT22;4925;52.588;13.370;2024-02-26T01:34:38;5.30;99.90
9772;DHT22;4925;52.588;13.370;2024-02-26T01:37:04;5.30;99.90
9772;DHT22;4925;52.588;13.370;2024-02-26T01:39:30;5.30;99.90
9772;DHT22;4925;52.588;13.370;2024-02-26T01:41:55;5.30;99.90
9772;DHT22;4925;52.588;13.370;2024-02-26T01:44:21;5.30;99.90
9772;DHT22;4925;52.588;13.370;2024-02-26T01:46:48;5.30;99.90
9772;DHT22;4925;52.588;13.370;2024-02-26T01:49:14;5.30;99.90
9772;DHT22;4925;52.588;13.370;2024-02-26T01:51:42;5.30;99.90
9772;DHT22;4925;52.588;13.370;2024-02-26T01:54:09;5.20;99.90
9772;DHT22;4925;52.588;13.370;2024-02-26T01:56:36;5.20;99.90
9772;DHT22;4925;52.588;13.370;2024-02-26T01:59:05;5.20;99.90
9772;DHT22;4925;52.588;13.370;2024-02-26T02:01:32;5.20;99.90
9772;DHT22;4925;52.588;13.370;2024-02-26T02:03:59;5.20;99.90
9772;DHT22;4925;52.588;13.370;2024-02-26T02:06:25;5.10;99.90
9772;DHT22;4925;52.588;13.370;2024-02-26T02:08:52;5.10;99.90
9772;DHT22;4925;52.588;13.370;2024-02-26T02:11:19;5.10;99.90
9772;DHT22;4925;52.588;13.370;2024-02-26T02:13:45;5.10;99.90
9772;DHT22;4925;52.588;13.370;2024-02-26T02:16:11;5.10;99.90
9772;DHT22;4925;52.588;13.370;2024-02-26T02:18:36;5.10;99.90
9772;DHT22;4925;52.588;13.370;2024-02-26T02:21:03;5.00;99.90
9772;DHT22;4925;52.588;13.370;2024-02-26T02:23:29;5.00;99.90
9772;DHT22;4925;52.588;13.370;2024-02-26T02:25:56;5.00;99.90
9772;DHT22;4925;52.588;13.370;2024-02-26T02:28:24;5.00;99.90
9772;DHT22;4925;52.588;13.370;2024-02-26T02:30:51;4.90;99.90
9772;DHT22;4925;52.588;13.370;2024-02-26T02:33:17;4.90;99.90
9772;DHT22;4925;52.588;13.370;2024-02-26T02:35:42;4.80;99.90
9772;DHT22;4925;52.588;13.370;2024-02-26T02:38:08;4.80;99.90
9772;DHT22;4925;52.588;13.370;2024-02-26T02:40:34;4.80;99.90
9772;DHT22;4925;52.588;13.370;2024-02-26T02:43:00;4.90;99.90
9772;DHT22;4925;52.588;13.370;2024-02-26T02:45:27;4.80;99.90
9772;DHT22;4925;52.588;13.370;2024-02-26T02:47:53;4.80;99.90
9772;DHT22;4925;52.588;13.370;2024-02-26T02:50:19;4.70;99.90
9772;DHT22;4925;52.588;13.370;2024-02-26T02:52:44;4.80;99.90
9772;DHT22;4925;52.588;13.370;2024-02-26T02:55:10;4.70;99.90
9772;DHT22;4925;52.588;13.370;2024-02-26T02:57:37;4.70;99.90
9772;DHT22;4925;52.588;13.370;2024-02-26T03:00:08;4.70;99.90
9772;DHT22;4925;52.588;13.370;2024-02-26T03:02:35;4.70;99.90
9772;DHT22;4925;52.588;13.370;2024-02-26T03:05:05;4.70;99.90
9772;DHT22;4925;52.588;13.370;2024-02-26T03:07:30;4.70;99.90
9772;DHT22;4925;52.588;13.370;2024-02-26T03:09:56;4.70;99.90
9772;DHT22;4925;52.588;13.370;2024-02-26T03:12:22;4.70;99.90
9772;DHT22;4925;52.588;13.370;2024-02-26T03:14:48;4.60;99.90
9772;DHT22;4925;52.588;13.370;2024-02-26T03:17:15;4.60;99.90
9772;DHT22;4925;52.588;13.370;2024-02-26T03:19:41;4.60;99.90
9772;DHT22;4925;52.588;13.370;2024-02-26T03:22:07;4.60;99.90
9772;DHT22;4925;52.588;13.370;2024-02-26T03:24:32;4.60;99.90
9772;DHT22;4925;52.588;13.370;2024-02-26T03:26:58;4.60;99.90
9772;DHT22;4925;52.588;13.370;2024-02-26T03:29:24;4.60;99.90
9772;DHT22;4925;52.588;13.370;2024-02-26T03:32:11;4.60;99.90
9772;DHT22;4925;52.588;13.370;2024-02-26T03:34:37;4.70;99.90
9772;DHT22;4925;52.588;13.370;2024-02-26T03:37:05;4.70;99.90
9772;DHT22;4925;52.588;13.370;2024-02-26T03:39:31;4.70;99.90
9772;DHT22;4925;52.588;13.370;2024-02-26T03:41:57;4.70;99.90
9772;DHT22;4925;52.588;13.370;2024-02-26T03:44:23;4.70;99.90
9772;DHT22;4925;52.588;13.370;2024-02-26T03:46:48;4.70;99.90
9772;DHT22;4925;52.588;13.370;2024-02-26T03:49:14;4.70;99.90
9772;DHT22;4925;52.588;13.370;2024-02-26T03:51:40;4.60;99.90
9772;DHT22;4925;52.588;13.370;2024-02-26T03:54:09;4.60;99.90
9772;DHT22;4925;52.588;13.370;2024-02-26T03:56:34;4.60;99.90
9772;DHT22;4925;52.588;13.370;2024-02-26T03:59:00;4.60;99.90
9772;DHT22;4925;52.588;13.370;2024-02-26T04:01:28;4.60;99.90
9772;DHT22;4925;52.588;13.370;2024-02-26T04:03:54;4.60;99.90
9772;DHT22;4925;52.588;13.370;2024-02-26T04:06:19;4.60;99.90
9772;DHT22;4925;52.588;13.370;2024-02-26T04:08:47;4.60;99.90
9772;DHT22;4925;52.588;13.370;2024-02-26T04:11:13;4.50;99.90
9772;DHT22;4925;52.588;13.370;2024-02-26T04:13:38;4.60;99.90
9772;DHT22;4925;52.588;13.370;2024-02-26T04:16:05;4.50;99.90
9772;DHT22;4925;52.588;13.370;2024-02-26T04:18:32;4.60;99.90
9772;DHT22;4925;52.588;13.370;2024-02-26T04:20:58;4.50;99.90
9772;DHT22;4925;52.588;13.370;2024-02-26T04:23:24;4.50;99.90
9772;DHT22;4925;52.588;13.370;2024-02-26T04:25:50;4.50;99.90
9772;DHT22;4925;52.588;13.370;2024-02-26T04:28:16;4.50;99.90
9772;DHT22;4925;52.588;13.370;2024-02-26T04:30:42;4.50;99.90
9772;DHT22;4925;52.588;13.370;2024-02-26T04:33:07;4.60;99.90
9772;DHT22;4925;52.588;13.370;2024-02-26T04:35:33;4.60;99.90
9772;DHT22;4925;52.588;13.370;2024-02-26T04:38:03;4.60;99.90
9772;DHT22;4925;52.588;13.370;2024-02-26T04:40:28;4.50;99.90
9772;DHT22;4925;52.588;13.370;2024-02-26T04:42:54;4.50;99.90
9772;DHT22;4925;52.588;13.370;2024-02-26T04:45:19;4.50;99.90
9772;DHT22;4925;52.588;13.370;2024-02-26T04:47:46;4.50;99.90
9772;DHT22;4925;52.588;13.370;2024-02-26T04:50:12;4.50;99.90
9772;DHT22;4925;52.588;13.370;2024-02-26T04:52:38;4.40;99.90
9772;DHT22;4925;52.588;13.370;2024-02-26T04:55:04;4.40;99.90
9772;DHT22;4925;52.588;13.370;2024-02-26T04:57:29;4.40;99.90
9772;DHT22;4925;52.588;13.370;2024-02-26T04:59:55;4.40;99.90
9772;DHT22;4925;52.588;13.370;2024-02-26T05:02:21;4.40;99.90
9772;DHT22;4925;52.588;13.370;2024-02-26T05:04:46;4.40;99.90
9772;DHT22;4925;52.588;13.370;2024-02-26T05:07:12;4.40;99.90
9772;DHT22;4925;52.588;13.370;2024-02-26T05:09:38;4.30;99.90
9772;DHT22;4925;52.588;13.370;2024-02-26T05:12:04;4.30;99.90
9772;DHT22;4925;52.588;13.370;2024-02-26T05:14:31;4.20;99.90
9772;DHT22;4925;52.588;13.370;2024-02-26T05:16:57;4.20;99.90
9772;DHT22;4925;52.588;13.370;2024-02-26T05:19:23;4.30;99.90
9772;DHT22;4925;52.588;13.370;2024-02-26T05:21:48;4.30;99.90
9772;DHT22;4925;52.588;13.370;2024-02-26T05:24:16;4.30;99.90
9772;DHT22;4925;52.588;13.370;2024-02-26T05:26:43;4.30;99.90
9772;DHT22;4925;52.588;13.370;2024-02-26T05:29:09;4.30;99.90
9772;DHT22;4925;52.588;13.370;2024-02-26T05:31:35;4.30;99.90
9772;DHT22;4925;52.588;13.370;2024-02-26T05:34:01;4.30;99.90
9772;DHT22;4925;52.588;13.370;2024-02-26T05:36:26;4.30;99.90
9772;DHT22;4925;52.588;13.370;2024-02-26T05:38:59;4.30;99.90
9772;DHT22;4925;52.588;13.370;2024-02-26T05:41:25;4.30;99.90
9772;DHT22;4925;52.588;13.370;2024-02-26T05:43:52;4.30;99.90
9772;DHT22;4925;52.588;13.370;2024-02-26T05:46:19;4.30;99.90
9772;DHT22;4925;52.588;13.370;2024-02-26T05:48:47;4.30;99.90
9772;DHT22;4925;52.588;13.370;2024-02-26T05:51:13;4.30;99.90
9772;DHT22;4925;52.588;13.370;2024-02-26T05:53:45;4.30;99.90
9772;DHT22;4925;52.588;13.370;2024-02-26T05:56:13;4.30;99.90
9772;DHT22;4925;52.588;13.370;2024-02-26T05:58:40;4.30;99.90
9772;DHT22;4925;52.588;13.370;2024-02-26T06:01:06;4.30;99.90
9772;DHT22;4925;52.588;13.370;2024-02-26T06:03:32;4.30;99.90
9772;DHT22;4925;52.588;13.370;2024-02-26T06:05:58;4.20;99.90
9772;DHT22;4925;52.588;13.370;2024-02-26T06:08:23;4.20;99.90
9772;DHT22;4925;52.588;13.370;2024-02-26T06:10:49;4.30;99.90
9772;DHT22;4925;52.588;13.370;2024-02-26T06:13:15;4.30;99.90
9772;DHT22;4925;52.588;13.370;2024-02-26T06:15:40;4.30;99.90
9772;DHT22;4925;52.588;13.370;2024-02-26T06:18:06;4.30;99.90
9772;DHT22;4925;52.588;13.370;2024-02-26T06:20:32;4.30;99.90
9772;DHT22;4925;52.588;13.370;2024-02-26T06:22:57;4.30;99.90
9772;DHT22;4925;52.588;13.370;2024-02-26T06:25:23;4.30;99.90
9772;DHT22;4925;52.588;13.370;2024-02-26T06:27:49;4.30;99.90
9772;DHT22;4925;52.588;13.370;2024-02-26T06:30:14;4.40;99.90
9772;DHT22;4925;52.588;13.370;2024-02-26T06:32:40;4.40;99.90
9772;DHT22;4925;52.588;13.370;2024-02-26T06:35:06;4.40;99.90
9772;DHT22;4925;52.588;13.370;2024-02-26T06:37:35;4.50;99.90
9772;DHT22;4925;52.588;13.370;2024-02-26T06:40:02;4.50;99.90
9772;DHT22;4925;52.588;13.370;2024-02-26T06:42:33;4.60;99.90
9772;DHT22;4925;52.588;13.370;2024-02-26T06:44:58;4.60;99.90
9772;DHT22;4925;52.588;13.370;2024-02-26T06:47:24;4.60;99.90
9772;DHT22;4925;52.588;13.370;2024-02-26T06:49:51;4.70;99.90
9772;DHT22;4925;52.588;13.370;2024-02-26T06:52:17;4.70;99.90
9772;DHT22;4925;52.588;13.370;2024-02-26T06:54:42;4.80;99.90
9772;DHT22;4925;52.588;13.370;2024-02-26T06:57:09;4.90;99.90
9772;DHT22;4925;52.588;13.370;2024-02-26T06:59:35;5.00;99.90
9772;DHT22;4925;52.588;13.370;2024-02-26T07:02:02;5.00;99.90
9772;DHT22;4925;52.588;13.370;2024-02-26T07:04:27;5.00;99.90
9772;DHT22;4925;52.588;13.370;2024-02-26T07:06:57;5.10;99.90
9772;DHT22;4925;52.588;13.370;2024-02-26T07:09:22;5.10;99.90
9772;DHT22;4925;52.588;13.370;2024-02-26T07:11:49;5.20;99.90
9772;DHT22;4925;52.588;13.370;2024-02-26T07:14:16;5.10;99.90
9772;DHT22;4925;52.588;13.370;2024-02-26T07:16:41;5.20;99.90
9772;DHT22;4925;52.588;13.370;2024-02-26T07:19:08;5.30;99.90
9772;DHT22;4925;52.588;13.370;2024-02-26T07:21:34;5.30;99.90
9772;DHT22;4925;52.588;13.370;2024-02-26T07:23:59;5.40;99.90
9772;DHT22;4925;52.588;13.370;2024-02-26T07:26:25;5.50;99.90
9772;DHT22;4925;52.588;13.370;2024-02-26T07:28:52;5.60;99.90
9772;DHT22;4925;52.588;13.370;2024-02-26T07:31:18;5.70;99.90
9772;DHT22;4925;52.588;13.370;2024-02-26T07:33:44;5.70;99.90
9772;DHT22;4925;52.588;13.370;2024-02-26T07:36:11;5.80;99.90
9772;DHT22;4925;52.588;13.370;2024-02-26T07:38:37;5.90;99.90
9772;DHT22;4925;52.588;13.370;2024-02-26T07:41:03;5.90;99.90
9772;DHT22;4925;52.588;13.370;2024-02-26T07:43:29;6.00;99.90
9772;DHT22;4925;52.588;13.370;2024-02-26T07:45:55;6.10;99.90
9772;DHT22;4925;52.588;13.370;2024-02-26T07:48:21;6.20;99.90
9772;DHT22;4925;52.588;13.370;2024-02-26T07:50:46;6.20;99.90
9772;DHT22;4925;52.588;13.370;2024-02-26T07:53:12;6.20;99.90
9772;DHT22;4925;52.588;13.370;2024-02-26T07:55:38;6.80;99.90
9772;DHT22;4925;52.588;13.370;2024-02-26T07:58:04;7.80;99.90
9772;DHT22;4925;52.588;13.370;2024-02-26T08:00:29;8.40;99.90
9772;DHT22;4925;52.588;13.370;2024-02-26T08:02:55;8.50;99.90
9772;DHT22;4925;52.588;13.370;2024-02-26T08:05:21;8.50;99.90
9772;DHT22;4925;52.588;13.370;2024-02-26T08:07:47;8.40;99.90
9772;DHT22;4925;52.588;13.370;2024-02-26T08:10:15;8.30;99.90
9772;DHT22;4925;52.588;13.370;2024-02-26T08:12:40;8.10;99.90
9772;DHT22;4925;52.588;13.370;2024-02-26T08:15:07;8.00;99.90
9772;DHT22;4925;52.588;13.370;2024-02-26T08:17:33;8.00;99.90
9772;DHT22;4925;52.588;13.370;2024-02-26T08:19:59;7.90;99.90
9772;DHT22;4925;52.588;13.370;2024-02-26T08:22:27;7.90;99.90
9772;DHT22;4925;52.588;13.370;2024-02-26T08:24:56;7.90;99.90
9772;DHT22;4925;52.588;13.370;2024-02-26T08:27:23;7.90;99.90
9772;DHT22;4925;52.588;13.370;2024-02-26T08:29:50;7.90;99.90
9772;DHT22;4925;52.588;13.370;2024-02-26T08:32:15;7.90;99.90
9772;DHT22;4925;52.588;13.370;2024-02-26T08:34:42;7.90;99.90
9772;DHT22;4925;52.588;13.370;2024-02-26T08:37:07;7.90;99.90
9772;DHT22;4925;52.588;13.370;2024-02-26T08:39:33;7.90;99.90
9772;DHT22;4925;52.588;13.370;2024-02-26T08:41:58;8.00;99.90
9772;DHT22;4925;52.588;13.370;2024-02-26T08:44:24;8.00;99.90
9772;DHT22;4925;52.588;13.370;2024-02-26T08:46:51;8.10;99.90
9772;DHT22;4925;52.588;13.370;2024-02-26T08:49:17;8.20;99.90
9772;DHT22;4925;52.588;13.370;2024-02-26T08:51:43;8.30;99.90
9772;DHT22;4925;52.588;13.370;2024-02-26T08:54:09;8.40;99.90
9772;DHT22;4925;52.588;13.370;2024-02-26T08:56:35;8.40;99.90
9772;DHT22;4925;52.588;13.370;2024-02-26T08:59:01;8.50;99.90
9772;DHT22;4925;52.588;13.370;2024-02-26T09:01:29;8.60;99.90
9772;DHT22;4925;52.588;13.370;2024-02-26T09:03:55;8.70;99.90
9772;DHT22;4925;52.588;13.370;2024-02-26T09:06:21;8.80;99.90
9772;DHT22;4925;52.588;13.370;2024-02-26T09:08:47;8.90;99.90
9772;DHT22;4925;52.588;13.370;2024-02-26T09:11:13;9.00;99.90
9772;DHT22;4925;52.588;13.370;2024-02-26T09:13:40;9.10;99.90
9772;DHT22;4925;52.588;13.370;2024-02-26T09:16:06;9.30;99.90
9772;DHT22;4925;52.588;13.370;2024-02-26T09:18:33;9.40;99.90
9772;DHT22;4925;52.588;13.370;2024-02-26T09:20:58;9.60;99.90
9772;DHT22;4925;52.588;13.370;2024-02-26T09:23:25;9.60;99.90
9772;DHT22;4925;52.588;13.370;2024-02-26T09:25:52;9.80;99.90
9772;DHT22;4925;52.588;13.370;2024-02-26T09:28:17;9.90;99.90
9772;DHT22;4925;52.588;13.370;2024-02-26T09:30:44;10.00;99.90
9772;DHT22;4925;52.588;13.370;2024-02-26T09:33:10;10.10;99.90
9772;DHT22;4925;52.588;13.370;2024-02-26T09:35:36;10.20;99.90
9772;DHT22;4925;52.588;13.370;2024-02-26T09:38:01;10.30;99.90
9772;DHT22;4925;52.588;13.370;2024-02-26T09:40:28;10.50;99.90
9772;DHT22;4925;52.588;13.370;2024-02-26T09:42:59;10.60;99.90
9772;DHT22;4925;52.588;13.370;2024-02-26T09:45:28;10.70;99.90
9772;DHT22;4925;52.588;13.370;2024-02-26T09:47:55;10.60;99.90
9772;DHT22;4925;52.588;13.370;2024-02-26T09:50:22;10.70;99.90
9772;DHT22;4925;52.588;13.370;2024-02-26T09:52:49;10.70;99.90
9772;DHT22;4925;52.588;13.370;2024-02-26T09:55:16;10.70;99.90
9772;DHT22;4925;52.588;13.370;2024-02-26T09:57:45;10.80;99.90
9772;DHT22;4925;52.588;13.370;2024-02-26T10:00:17;10.80;99.90
9772;DHT22;4925;52.588;13.370;2024-02-26T10:02:48;10.90;99.90
9772;DHT22;4925;52.588;13.370;2024-02-26T10:05:20;11.10;99.90
9772;DHT22;4925;52.588;13.370;2024-02-26T10:07:46;11.30;99.90
9772;DHT22;4925;52.588;13.370;2024-02-26T10:10:14;11.40;99.90
9772;DHT22;4925;52.588;13.370;2024-02-26T10:12:40;11.50;99.90
9772;DHT22;4925;52.588;13.370;2024-02-26T10:15:06;11.70;99.90
9772;DHT22;4925;52.588;13.370;2024-02-26T10:17:34;11.70;99.90
9772;DHT22;4925;52.588;13.370;2024-02-26T10:20:18;11.80;99.90
9772;DHT22;4925;52.588;13.370;2024-02-26T10:22:47;11.90;99.90
9772;DHT22;4925;52.588;13.370;2024-02-26T10:25:13;11.90;99.90
9772;DHT22;4925;52.588;13.370;2024-02-26T10:27:42;12.00;99.90
9772;DHT22;4925;52.588;13.370;2024-02-26T10:30:19;12.10;99.90
9772;DHT22;4925;52.588;13.370;2024-02-26T10:32:49;12.20;99.90
9772;DHT22;4925;52.588;13.370;2024-02-26T10:35:21;12.30;99.90
9772;DHT22;4925;52.588;13.370;2024-02-26T10:37:48;12.30;99.90
9772;DHT22;4925;52.588;13.370;2024-02-26T10:40:14;12.50;99.90
9772;DHT22;4925;52.588;13.370;2024-02-26T10:42:41;12.60;98.10
9772;DHT22;4925;52.588;13.370;2024-02-26T10:45:09;12.70;97.10
9772;DHT22;4925;52.588;13.370;2024-02-26T10:47:40;12.80;95.40
9772;DHT22;4925;52.588;13.370;2024-02-26T10:50:08;12.80;94.30
9772;DHT22;4925;52.588;13.370;2024-02-26T10:52:36;12.70;94.00
9772;DHT22;4925;52.588;13.370;2024-02-26T10:55:03;12.80;93.10
9772;DHT22;4925;52.588;13.370;2024-02-26T10:57:51;12.50;94.30
9772;DHT22;4925;52.588;13.370;2024-02-26T11:00:18;12.70;93.90
9772;DHT22;4925;52.588;13.370;2024-02-26T11:02:45;12.80;92.30
9772;DHT22;4925;52.588;13.370;2024-02-26T11:05:12;13.00;88.60
9772;DHT22;4925;52.588;13.370;2024-02-26T11:07:41;13.10;88.50
9772;DHT22;4925;52.588;13.370;2024-02-26T11:10:08;13.10;87.90
9772;DHT22;4925;52.588;13.370;2024-02-26T11:12:35;13.20;84.90
9772;DHT22;4925;52.588;13.370;2024-02-26T11:15:03;13.40;83.70
9772;DHT22;4925;52.588;13.370;2024-02-26T11:17:31;13.50;73.20
9772;DHT22;4925;52.588;13.370;2024-02-26T11:20:01;13.50;72.90
9772;DHT22;4925;52.588;13.370;2024-02-26T11:22:30;13.50;72.00
9772;DHT22;4925;52.588;13.370;2024-02-26T11:24:56;13.60;71.80
9772;DHT22;4925;52.588;13.370;2024-02-26T11:27:32;13.60;66.70
9772;DHT22;4925;52.588;13.370;2024-02-26T11:30:02;13.60;66.20
9772;DHT22;4925;52.588;13.370;2024-02-26T11:32:31;13.70;59.00
9772;DHT22;4925;52.588;13.370;2024-02-26T11:34:58;13.70;53.80
9772;DHT22;4925;52.588;13.370;2024-02-26T11:37:24;13.70;55.70
9772;DHT22;4925;52.588;13.370;2024-02-26T11:39:51;13.70;56.20
9772;DHT22;4925;52.588;13.370;2024-02-26T11:42:23;13.70;53.10
9772;DHT22;4925;52.588;13.370;2024-02-26T11:44:50;13.80;56.40
9772;DHT22;4925;52.588;13.370;2024-02-26T11:47:22;13.90;55.60
9772;DHT22;4925;52.588;13.370;2024-02-26T11:49:49;13.90;52.60
9772;DHT22;4925;52.588;13.370;2024-02-26T11:52:15;13.90;52.30
9772;DHT22;4925;52.588;13.370;2024-02-26T12:00:12;13.80;54.50
9772;DHT22;4925;52.588;13.370;2024-02-26T12:02:47;13.80;55.00
9772;DHT22;4925;52.588;13.370;2024-02-26T12:08:08;13.70;61.10
9772;DHT22;4925;52.588;13.370;2024-02-26T12:10:36;13.70;56.20
9772;DHT22;4925;52.588;13.370;2024-02-26T12:13:16;13.70;67.40
9772;DHT22;4925;52.588;13.370;2024-02-26T12:15:43;13.80;62.00
9772;DHT22;4925;52.588;13.370;2024-02-26T12:18:16;13.90;54.00
9772;DHT22;4925;52.588;13.370;2024-02-26T12:20:42;14.00;52.90
9772;DHT22;4925;52.588;13.370;2024-02-26T12:23:14;14.10;47.80
9772;DHT22;4925;52.588;13.370;2024-02-26T12:25:40;14.30;45.00
9772;DHT22;4925;52.588;13.370;2024-02-26T12:28:07;14.50;30.10
9772;DHT22;4925;52.588;13.370;2024-02-26T12:30:33;14.40;27.70
9772;DHT22;4925;52.588;13.370;2024-02-26T12:32:59;14.50;22.30
9772;DHT22;4925;52.588;13.370;2024-02-26T12:35:26;14.50;19.90
9772;DHT22;4925;52.588;13.370;2024-02-26T12:37:53;14.50;16.00
9772;DHT22;4925;52.588;13.370;2024-02-26T12:40:20;14.40;14.00
9772;DHT22;4925;52.588;13.370;2024-02-26T12:42:46;14.50;13.80
9772;DHT22;4925;52.588;13.370;2024-02-26T12:45:13;14.70;12.40
9772;DHT22;4925;52.588;13.370;2024-02-26T12:47:44;14.80;5.70
9772;DHT22;4925;52.588;13.370;2024-02-26T12:50:15;14.90;6.30
9772;DHT22;4925;52.588;13.370;2024-02-26T12:52:43;15.00;4.80
9772;DHT22;4925;52.588;13.370;2024-02-26T12:55:13;15.00;5.20
9772;DHT22;4925;52.588;13.370;2024-02-26T12:57:40;14.90;7.30
9772;DHT22;4925;52.588;13.370;2024-02-26T13:00:12;14.90;1.20
9772;DHT22;4925;52.588;13.370;2024-02-26T13:02:40;14.80;1.00
9772;DHT22;4925;52.588;13.370;2024-02-26T13:05:08;14.60;1.00
9772;DHT22;4925;52.588;13.370;2024-02-26T13:07:35;14.60;1.00
9772;DHT22;4925;52.588;13.370;2024-02-26T13:10:06;14.40;1.00
9772;DHT22;4925;52.588;13.370;2024-02-26T13:12:32;14.40;1.00
9772;DHT22;4925;52.588;13.370;2024-02-26T13:15:04;14.30;1.00
9772;DHT22;4925;52.588;13.370;2024-02-26T13:17:34;14.30;1.00
9772;DHT22;4925;52.588;13.370;2024-02-26T13:19:59;14.30;1.00
9772;DHT22;4925;52.588;13.370;2024-02-26T13:22:25;14.30;1.00
9772;DHT22;4925;52.588;13.370;2024-02-26T13:24:56;14.40;1.00
9772;DHT22;4925;52.588;13.370;2024-02-26T13:27:26;14.40;1.00
9772;DHT22;4925;52.588;13.370;2024-02-26T13:30:10;14.50;1.00
9772;DHT22;4925;52.588;13.370;2024-02-26T13:32:37;14.50;1.00
9772;DHT22;4925;52.588;13.370;2024-02-26T13:35:11;14.50;1.00
9772;DHT22;4925;52.588;13.370;2024-02-26T13:37:37;14.40;1.00
9772;DHT22;4925;52.588;13.370;2024-02-26T13:40:11;14.30;1.00
9772;DHT22;4925;52.588;13.370;2024-02-26T13:42:37;14.30;1.00
9772;DHT22;4925;52.588;13.370;2024-02-26T13:45:04;14.20;1.00
9772;DHT22;4925;52.588;13.370;2024-02-26T13:47:34;14.10;1.00
9772;DHT22;4925;52.588;13.370;2024-02-26T13:50:01;14.10;1.00
9772;DHT22;4925;52.588;13.370;2024-02-26T13:52:27;14.20;1.00
9772;DHT22;4925;52.588;13.370;2024-02-26T13:54:52;14.20;1.00
9772;DHT22;4925;52.588;13.370;2024-02-26T13:57:19;14.10;1.00
9772;DHT22;4925;52.588;13.370;2024-02-26T13:59:45;14.10;1.00
9772;DHT22;4925;52.588;13.370;2024-02-26T14:02:11;14.10;1.00
9772;DHT22;4925;52.588;13.370;2024-02-26T14:04:37;14.10;1.00
9772;DHT22;4925;52.588;13.370;2024-02-26T14:07:04;14.20;1.00
9772;DHT22;4925;52.588;13.370;2024-02-26T14:09:30;14.20;1.00
9772;DHT22;4925;52.588;13.370;2024-02-26T14:11:56;14.10;1.00
9772;DHT22;4925;52.588;13.370;2024-02-26T14:14:21;14.00;1.00
9772;DHT22;4925;52.588;13.370;2024-02-26T14:16:47;13.90;1.00
9772;DHT22;4925;52.588;13.370;2024-02-26T14:19:13;13.80;1.50
9772;DHT22;4925;52.588;13.370;2024-02-26T14:21:38;13.90;2.90
9772;DHT22;4925;52.588;13.370;2024-02-26T14:24:05;13.90;4.30
9772;DHT22;4925;52.588;13.370;2024-02-26T14:26:32;13.90;5.60
9772;DHT22;4925;52.588;13.370;2024-02-26T14:28:57;13.90;6.60
9772;DHT22;4925;52.588;13.370;2024-02-26T14:31:23;14.00;7.90
9772;DHT22;4925;52.588;13.370;2024-02-26T14:33:51;14.00;10.40
9772;DHT22;4925;52.588;13.370;2024-02-26T14:36:21;14.00;10.50
9772;DHT22;4925;52.588;13.370;2024-02-26T14:38:54;14.00;12.40
9772;DHT22;4925;52.588;13.370;2024-02-26T14:41:20;14.00;14.50
9772;DHT22;4925;52.588;13.370;2024-02-26T14:43:45;14.00;13.40
9772;DHT22;4925;52.588;13.370;2024-02-26T14:46:11;14.00;13.60
9772;DHT22;4925;52.588;13.370;2024-02-26T14:48:37;14.00;15.40
9772;DHT22;4925;52.588;13.370;2024-02-26T14:51:03;14.00;18.00
9772;DHT22;4925;52.588;13.370;2024-02-26T14:53:32;14.00;20.50
9772;DHT22;4925;52.588;13.370;2024-02-26T14:55:59;14.00;21.50
9772;DHT22;4925;52.588;13.370;2024-02-26T14:58:25;13.90;21.00
9772;DHT22;4925;52.588;13.370;2024-02-26T15:00:51;13.90;20.90
9772;DHT22;4925;52.588;13.370;2024-02-26T15:03:17;13.70;22.00
9772;DHT22;4925;52.588;13.370;2024-02-26T15:05:43;13.70;23.30
9772;DHT22;4925;52.588;13.370;2024-02-26T15:08:08;13.70;23.60
9772;DHT22;4925;52.588;13.370;2024-02-26T15:10:35;13.70;25.50
9772;DHT22;4925;52.588;13.370;2024-02-26T15:13:02;13.70;26.30
9772;DHT22;4925;52.588;13.370;2024-02-26T15:15:29;13.60;28.10
9772;DHT22;4925;52.588;13.370;2024-02-26T15:17:54;13.60;29.30
9772;DHT22;4925;52.588;13.370;2024-02-26T15:20:20;13.60;29.80
9772;DHT22;4925;52.588;13.370;2024-02-26T15:22:47;13.50;30.10
9772;DHT22;4925;52.588;13.370;2024-02-26T15:25:12;13.50;30.90
9772;DHT22;4925;52.588;13.370;2024-02-26T15:27:38;13.40;30.40
9772;DHT22;4925;52.588;13.370;2024-02-26T15:30:05;13.30;29.70
9772;DHT22;4925;52.588;13.370;2024-02-26T15:32:33;13.10;32.10
9772;DHT22;4925;52.588;13.370;2024-02-26T15:34:58;13.10;32.30
9772;DHT22;4925;52.588;13.370;2024-02-26T15:37:24;13.00;34.00
9772;DHT22;4925;52.588;13.370;2024-02-26T15:39:49;13.00;36.50
9772;DHT22;4925;52.588;13.370;2024-02-26T15:42:16;13.00;39.80
9772;DHT22;4925;52.588;13.370;2024-02-26T15:44:41;13.00;41.90
9772;DHT22;4925;52.588;13.370;2024-02-26T15:47:07;13.00;44.40
9772;DHT22;4925;52.588;13.370;2024-02-26T15:49:33;12.90;48.00
9772;DHT22;4925;52.588;13.370;2024-02-26T15:52:01;12.90;51.20
9772;DHT22;4925;52.588;13.370;2024-02-26T15:54:26;12.90;52.00
9772;DHT22;4925;52.588;13.370;2024-02-26T15:56:52;12.90;53.90
9772;DHT22;4925;52.588;13.370;2024-02-26T15:59:19;12.90;54.30
9772;DHT22;4925;52.588;13.370;2024-02-26T16:01:45;12.90;55.90
9772;DHT22;4925;52.588;13.370;2024-02-26T16:04:10;12.90;57.50